Time;durP1;ratioP1;P1;durP2;ratioP2;P2;SDS_P1;SDS_P2;PMS_P1;PMS_P2;Temp;Humidity;BMP_temperature;BMP_pressure;BME280_temperature;BME280_humidity;BME280_pressure;Samples;Min_cycle;Max_cycle;Signal;HPM_P1;HPM_P2
2021/03/06 00:01:14;;;;;;;0.00;0.00;;;-1.10;99.90;;;;;;6182875;23;20392;-71
2021/03/06 00:03:40;;;;;;;0.00;0.00;;;-1.10;99.90;;;;;;6182966;23;20752;-70
2021/03/06 00:06:06;;;;;;;0.00;0.00;;;-1.10;99.90;;;;;;6182456;23;20373;-70
2021/03/06 00:08:33;;;;;;;0.00;0.00;;;-1.20;99.90;;;;;;6182248;23;20717;-70
2021/03/06 00:10:59;;;;;;;0.00;0.00;;;-1.20;99.90;;;;;;6183906;23;20852;-70
2021/03/06 00:13:26;;;;;;;0.00;0.00;;;-1.20;99.90;;;;;;6184160;23;21122;-70
2021/03/06 00:15:52;;;;;;;0.00;0.00;;;-1.20;99.90;;;;;;6183715;23;20869;-71
2021/03/06 00:18:18;;;;;;;0.00;0.00;;;-1.20;99.90;;;;;;6184454;23;20377;-71
2021/03/06 00:20:44;;;;;;;0.00;0.00;;;-1.20;99.90;;;;;;6184179;23;20388;-70
2021/03/06 00:23:11;;;;;;;0.00;0.00;;;-1.20;99.90;;;;;;6183549;23;20841;-70
2021/03/06 00:25:37;;;;;;;0.00;0.00;;;-1.20;99.90;;;;;;6184628;23;20485;-70
2021/03/06 00:28:04;;;;;;;0.00;0.00;;;-1.20;99.90;;;;;;6184061;23;20386;-69
2021/03/06 00:30:30;;;;;;;0.00;0.00;;;-1.30;99.90;;;;;;6184076;23;20381;-69
2021/03/06 00:32:56;;;;;;;0.00;0.00;;;-1.30;99.90;;;;;;6184092;23;20374;-72
2021/03/06 00:35:22;;;;;;;0.00;0.00;;;-1.30;99.90;;;;;;6184398;23;20373;-71
2021/03/06 00:37:49;;;;;;;0.00;0.00;;;-1.40;99.90;;;;;;6183985;23;20427;-70
2021/03/06 00:40:15;;;;;;;0.00;0.00;;;-1.40;99.90;;;;;;6183548;23;20385;-70
2021/03/06 00:42:42;;;;;;;0.00;0.00;;;-1.40;99.90;;;;;;6184346;23;20376;-70
2021/03/06 00:45:09;;;;;;;0.00;0.00;;;-1.50;99.90;;;;;;6184096;23;20381;-69
2021/03/06 00:47:36;;;;;;;0.00;0.00;;;-1.50;99.90;;;;;;6184394;23;20385;-71
2021/03/06 00:50:05;;;;;;;0.00;0.00;;;-1.50;99.90;;;;;;6183371;23;20381;-69
2021/03/06 00:52:31;;;;;;;0.00;0.00;;;-1.50;99.90;;;;;;6184555;23;20674;-70
2021/03/06 00:54:57;;;;;;;0.00;0.00;;;-1.50;99.90;;;;;;6183973;23;20377;-69
2021/03/06 00:57:23;;;;;;;0.00;0.00;;;-1.50;99.90;;;;;;6184097;23;20404;-70
2021/03/06 00:59:50;;;;;;;0.00;0.00;;;-1.50;99.90;;;;;;6183971;23;20385;-70
2021/03/06 01:02:16;;;;;;;0.00;0.00;;;-1.50;99.90;;;;;;6183973;23;20377;-70
2021/03/06 01:04:43;;;;;;;0.00;0.00;;;-1.50;99.90;;;;;;6183704;23;20875;-70
2021/03/06 01:07:09;;;;;;;0.00;0.00;;;-1.50;99.90;;;;;;6184088;23;20388;-70
2021/03/06 01:09:35;;;;;;;0.00;0.00;;;-1.40;99.90;;;;;;6183617;23;20381;-69
2021/03/06 01:12:01;;;;;;;0.00;0.00;;;-1.40;99.90;;;;;;6183885;23;20876;-70
2021/03/06 01:14:27;;;;;;;0.00;0.00;;;-1.40;99.90;;;;;;6183801;23;20381;-70
2021/03/06 01:16:54;;;;;;;0.00;0.00;;;-1.40;99.90;;;;;;6183742;23;20384;-69
2021/03/06 01:19:20;;;;;;;0.00;0.00;;;-1.30;99.90;;;;;;6183199;23;20426;-69
2021/03/06 01:21:46;;;;;;;0.00;0.00;;;-1.40;99.90;;;;;;6183500;23;20873;-69
2021/03/06 01:24:13;;;;;;;0.00;0.00;;;-1.40;99.90;;;;;;6183573;23;20382;-69
2021/03/06 01:26:39;;;;;;;0.00;0.00;;;-1.40;99.90;;;;;;6183806;23;20378;-69
2021/03/06 01:29:05;;;;;;;0.00;0.00;;;-1.40;99.90;;;;;;6183535;23;20389;-69
2021/03/06 01:31:31;;;;;;;0.00;0.00;;;-1.40;99.90;;;;;;6184190;23;20381;-69
2021/03/06 01:33:58;;;;;;;0.00;0.00;;;-1.50;99.90;;;;;;6184009;23;20374;-70
2021/03/06 01:36:24;;;;;;;0.00;0.00;;;-1.50;99.90;;;;;;6183698;23;20380;-69
2021/03/06 01:38:50;;;;;;;0.00;0.00;;;-1.70;99.90;;;;;;6183072;23;20369;-70
2021/03/06 01:41:16;;;;;;;0.00;0.00;;;-1.70;99.90;;;;;;6183762;23;20373;-70
2021/03/06 01:43:43;;;;;;;0.00;0.00;;;-1.70;99.90;;;;;;6183604;23;20770;-69
2021/03/06 01:46:09;;;;;;;0.00;0.00;;;-1.70;99.90;;;;;;6183386;23;20838;-70
2021/03/06 01:48:37;;;;;;;0.00;0.00;;;-1.70;99.90;;;;;;6182696;23;20397;-69
2021/03/06 01:51:04;;;;;;;0.00;0.00;;;-1.70;99.90;;;;;;6183680;23;20373;-69
2021/03/06 01:53:31;;;;;;;0.00;0.00;;;-1.70;99.90;;;;;;6183469;23;20377;-70
2021/03/06 01:55:57;;;;;;;0.00;0.00;;;-1.70;99.90;;;;;;6183905;23;20377;-69
2021/03/06 01:58:23;;;;;;;0.00;0.00;;;-1.80;99.90;;;;;;6183382;23;20449;-69
2021/03/06 02:00:49;;;;;;;0.00;0.00;;;-1.80;99.90;;;;;;6183139;23;20381;-69
2021/03/06 02:03:15;;;;;;;0.00;0.00;;;-1.80;99.90;;;;;;6183359;23;20377;-69
2021/03/06 02:05:43;;;;;;;0.00;0.00;;;-1.80;99.90;;;;;;6183361;23;20377;-69
2021/03/06 02:08:10;;;;;;;0.00;0.00;;;-1.80;99.90;;;;;;6183313;23;20413;-69
2021/03/06 02:10:39;;;;;;;0.00;0.00;;;-1.80;99.90;;;;;;6182773;23;20436;-69
2021/03/06 02:13:26;;;;;;;0.00;0.00;;;-1.80;99.90;;;;;;6182963;23;20377;-70
2021/03/06 02:16:04;;;;;;;0.00;0.00;;;-1.90;99.90;;;;;;6182953;23;20377;-69
2021/03/06 02:18:37;;;;;;;0.00;0.00;;;-1.80;99.90;;;;;;6182716;23;20881;-69
2021/03/06 02:21:08;;;;;;;0.00;0.00;;;-1.70;99.90;;;;;;6183052;23;20377;-70
2021/03/06 02:24:16;;;;;;;0.00;0.00;;;-1.70;99.90;;;;;;6183352;23;20384;-70
2021/03/06 02:26:55;;;;;;;0.00;0.00;;;-1.70;99.90;;;;;;6129462;23;20377;-69
2021/03/06 02:29:43;;;;;;;0.00;0.00;;;-1.70;99.90;;;;;;6183084;23;20401;-71
2021/03/06 02:32:13;;;;;;;0.00;0.00;;;-1.70;99.90;;;;;;6182934;23;20380;-69
2021/03/06 02:34:45;;;;;;;0.00;0.00;;;-1.70;99.90;;;;;;6183578;23;20373;-69
2021/03/06 02:37:11;;;;;;;0.00;0.00;;;-1.80;99.90;;;;;;6183253;23;20447;-69
2021/03/06 02:39:43;;;;;;;0.00;0.00;;;-1.80;99.90;;;;;;6182650;23;20380;-70
2021/03/06 02:42:13;;;;;;;0.00;0.00;;;-1.90;99.90;;;;;;6183603;23;20697;-68
2021/03/06 02:44:41;;;;;;;0.00;0.00;;;-1.90;99.90;;;;;;6182907;23;20415;-68
2021/03/06 02:47:09;;;;;;;0.00;0.00;;;-1.90;99.90;;;;;;6183137;23;20373;-70
2021/03/06 02:49:35;;;;;;;0.00;0.00;;;-1.90;99.90;;;;;;6182145;23;20460;-69
2021/03/06 02:52:01;;;;;;;0.00;0.00;;;-2.00;99.90;;;;;;6183409;23;20393;-69
2021/03/06 02:54:27;;;;;;;0.00;0.00;;;-2.00;99.90;;;;;;6183238;23;20380;-68
2021/03/06 02:56:54;;;;;;;0.00;0.00;;;-2.00;99.90;;;;;;6182931;23;20373;-69
2021/03/06 02:59:35;;;;;;;0.00;0.00;;;-1.90;99.90;;;;;;6182661;23;20427;-69
2021/03/06 03:02:13;;;;;;;0.00;0.00;;;-1.90;99.90;;;;;;6183503;23;20381;-69
2021/03/06 03:04:52;;;;;;;0.00;0.00;;;-1.90;99.90;;;;;;6183996;23;20452;-69
2021/03/06 03:07:24;;;;;;;0.00;0.00;;;-1.90;99.90;;;;;;6182841;23;20856;-69
2021/03/06 03:09:56;;;;;;;0.00;0.00;;;-1.90;99.90;;;;;;6182815;23;20377;-69
2021/03/06 03:12:24;;;;;;;0.00;0.00;;;-2.00;99.90;;;;;;6183146;23;20888;-69
2021/03/06 03:14:57;;;;;;;0.00;0.00;;;-2.00;99.90;;;;;;6183597;23;20373;-70
2021/03/06 03:17:28;;;;;;;0.00;0.00;;;-2.00;99.90;;;;;;6182667;23;20384;-69
2021/03/06 03:19:59;;;;;;;0.00;0.00;;;-2.00;99.90;;;;;;6182344;23;20381;-70
2021/03/06 03:22:30;;;;;;;0.00;0.00;;;-2.00;99.90;;;;;;6182806;23;20906;-69
2021/03/06 03:24:59;;;;;;;0.00;0.00;;;-2.10;99.90;;;;;;6182689;23;20384;-69
2021/03/06 03:27:27;;;;;;;0.00;0.00;;;-2.00;99.90;;;;;;6183180;23;20392;-69
2021/03/06 03:29:54;;;;;;;0.00;0.00;;;-2.00;99.90;;;;;;6182395;23;20377;-70
2021/03/06 03:32:22;;;;;;;0.00;0.00;;;-2.10;99.90;;;;;;6182980;23;20377;-69
2021/03/06 03:34:50;;;;;;;0.00;0.00;;;-2.10;99.90;;;;;;6182807;23;20400;-68
2021/03/06 03:37:17;;;;;;;0.00;0.00;;;-2.00;99.90;;;;;;6182899;23;20447;-68
2021/03/06 03:39:44;;;;;;;0.00;0.00;;;-2.00;99.90;;;;;;6182353;23;20698;-68
2021/03/06 03:42:10;;;;;;;0.00;0.00;;;-2.00;99.90;;;;;;6182477;23;20377;-69
2021/03/06 03:44:37;;;;;;;0.00;0.00;;;-2.00;99.90;;;;;;6183791;23;20384;-68
2021/03/06 03:47:04;;;;;;;0.00;0.00;;;-2.10;99.90;;;;;;6184657;23;20396;-69
2021/03/06 03:49:30;;;;;;;0.00;0.00;;;-2.10;99.90;;;;;;6184355;23;20392;-69
2021/03/06 03:51:59;;;;;;;0.00;0.00;;;-2.10;99.90;;;;;;6184662;23;20388;-69
2021/03/06 03:54:26;;;;;;;0.00;0.00;;;-2.10;99.90;;;;;;6184684;23;20448;-68
2021/03/06 03:56:53;;;;;;;0.00;0.00;;;-2.10;99.90;;;;;;6184911;23;20378;-68
2021/03/06 03:59:19;;;;;;;0.00;0.00;;;-2.20;99.90;;;;;;6184088;23;20380;-68
2021/03/06 04:01:46;;;;;;;0.00;0.00;;;-2.20;99.90;;;;;;6184775;23;20687;-68
2021/03/06 04:04:24;;;;;;;0.00;0.00;;;-2.10;99.90;;;;;;6184652;23;20431;-68
2021/03/06 04:06:50;;;;;;;0.00;0.00;;;-2.10;99.90;;;;;;6184720;23;20701;-68
2021/03/06 04:09:17;;;;;;;0.00;0.00;;;-2.10;99.90;;;;;;6183898;23;20396;-68
2021/03/06 04:11:43;;;;;;;0.00;0.00;;;-2.10;99.90;;;;;;6184553;23;20373;-67
2021/03/06 04:14:09;;;;;;;0.00;0.00;;;-2.20;99.90;;;;;;6184655;23;20377;-68
2021/03/06 04:16:36;;;;;;;0.00;0.00;;;-2.30;99.90;;;;;;6183883;23;20378;-68
2021/03/06 04:19:02;;;;;;;0.00;0.00;;;-2.30;99.90;;;;;;6184130;23;20377;-69
2021/03/06 04:21:29;;;;;;;0.00;0.00;;;-2.40;99.90;;;;;;6184051;23;20705;-68
2021/03/06 04:23:55;;;;;;;0.00;0.00;;;-2.40;99.90;;;;;;6184408;23;20377;-68
2021/03/06 04:26:22;;;;;;;0.00;0.00;;;-2.50;99.90;;;;;;6184239;23;20385;-68
2021/03/06 04:28:48;;;;;;;0.00;0.00;;;-2.40;99.90;;;;;;6184021;23;20393;-69
2021/03/06 04:31:14;;;;;;;0.00;0.00;;;-2.40;99.90;;;;;;6184688;23;20428;-69
2021/03/06 04:33:40;;;;;;;0.00;0.00;;;-2.40;99.90;;;;;;6184593;23;20373;-69
2021/03/06 04:36:07;;;;;;;0.00;0.00;;;-2.30;99.90;;;;;;6184365;23;20710;-69
2021/03/06 04:38:33;;;;;;;0.00;0.00;;;-2.30;99.90;;;;;;6183911;23;20774;-68
2021/03/06 04:40:59;;;;;;;0.00;0.00;;;-2.30;99.90;;;;;;6184032;23;20385;-68
2021/03/06 04:43:26;;;;;;;0.00;0.00;;;-2.30;99.90;;;;;;6184058;23;20384;-67
2021/03/06 04:45:53;;;;;;;0.00;0.00;;;-2.30;99.90;;;;;;6183832;23;20887;-70
2021/03/06 04:48:20;;;;;;;0.00;0.00;;;-2.30;99.90;;;;;;6183514;23;20396;-68
2021/03/06 04:50:46;;;;;;;0.00;0.00;;;-2.30;99.90;;;;;;6182729;23;20408;-68
2021/03/06 04:53:13;;;;;;;0.00;0.00;;;-2.40;99.90;;;;;;6184397;23;20385;-68
2021/03/06 04:55:39;;;;;;;0.00;0.00;;;-2.40;99.90;;;;;;6183676;23;20388;-69
2021/03/06 04:58:05;;;;;;;0.00;0.00;;;-2.40;99.90;;;;;;6183849;23;20378;-69
2021/03/06 05:00:32;;;;;;;0.00;0.00;;;-2.50;99.90;;;;;;6182561;23;20443;-68
2021/03/06 05:02:58;;;;;;;0.00;0.00;;;-2.50;99.90;;;;;;6184069;23;20712;-68
2021/03/06 05:05:25;;;;;;;0.00;0.00;;;-2.50;99.90;;;;;;6184194;23;20384;-68
2021/03/06 05:07:51;;;;;;;0.00;0.00;;;-2.50;99.90;;;;;;6183076;23;20397;-68
2021/03/06 05:10:19;;;;;;;0.00;0.00;;;-2.60;99.90;;;;;;6183227;23;20899;-68
2021/03/06 05:12:45;;;;;;;0.00;0.00;;;-2.60;99.90;;;;;;6183423;23;20381;-68
2021/03/06 05:15:11;;;;;;;0.00;0.00;;;-2.60;99.90;;;;;;6184068;23;20374;-68
2021/03/06 05:17:38;;;;;;;0.00;0.00;;;-2.60;99.90;;;;;;6183175;23;20377;-68
2021/03/06 05:20:06;;;;;;;0.00;0.00;;;-2.60;99.90;;;;;;6183432;23;20423;-68
2021/03/06 05:22:32;;;;;;;0.00;0.00;;;-2.60;99.90;;;;;;6183576;23;20381;-68
2021/03/06 05:24:58;;;;;;;0.00;0.00;;;-2.60;99.90;;;;;;6183568;23;20373;-68
2021/03/06 05:27:24;;;;;;;0.00;0.00;;;-2.60;99.90;;;;;;6184020;23;20374;-68
2021/03/06 05:29:50;;;;;;;0.00;0.00;;;-2.60;99.90;;;;;;6182629;23;20455;-68
2021/03/06 05:32:16;;;;;;;0.00;0.00;;;-2.60;99.90;;;;;;6183656;23;20385;-68
2021/03/06 05:34:43;;;;;;;0.00;0.00;;;-2.60;99.90;;;;;;6183595;23;20377;-67
2021/03/06 05:37:09;;;;;;;0.00;0.00;;;-2.60;99.90;;;;;;6183453;23;20887;-68
2021/03/06 05:39:35;;;;;;;0.00;0.00;;;-2.60;99.90;;;;;;6183183;23;20376;-67
2021/03/06 05:42:04;;;;;;;0.00;0.00;;;-2.70;99.90;;;;;;6183928;23;20388;-68
2021/03/06 05:44:33;;;;;;;0.00;0.00;;;-2.70;99.90;;;;;;6183406;23;20964;-69
2021/03/06 05:46:59;;;;;;;0.00;0.00;;;-2.60;99.90;;;;;;6183386;23;20473;-69
2021/03/06 05:49:25;;;;;;;0.00;0.00;;;-2.60;99.90;;;;;;6183218;23;20393;-68
2021/03/06 05:51:52;;;;;;;0.00;0.00;;;-2.60;99.90;;;;;;6183370;23;20377;-68
2021/03/06 05:54:21;;;;;;;0.00;0.00;;;-2.50;99.90;;;;;;6183487;23;20376;-68
2021/03/06 05:56:49;;;;;;;0.00;0.00;;;-2.50;99.90;;;;;;6183474;23;20404;-68
2021/03/06 05:59:15;;;;;;;0.00;0.00;;;-2.50;99.90;;;;;;6182783;23;20416;-68
2021/03/06 06:01:42;;;;;;;0.00;0.00;;;-2.50;99.90;;;;;;6183210;23;20840;-68
2021/03/06 06:04:09;;;;;;;0.00;0.00;;;-2.50;99.90;;;;;;6183213;23;20377;-68
2021/03/06 06:06:37;;;;;;;0.00;0.00;;;-2.50;99.90;;;;;;6183119;23;20378;-68
2021/03/06 06:09:06;;;;;;;0.00;0.00;;;-2.50;99.90;;;;;;6182576;23;20712;-69
2021/03/06 06:11:33;;;;;;;0.00;0.00;;;-2.50;99.90;;;;;;6183450;23;20381;-68
2021/03/06 06:14:00;;;;;;;0.00;0.00;;;-2.50;99.90;;;;;;6182942;23;20377;-69
2021/03/06 06:16:28;;;;;;;0.00;0.00;;;-2.60;99.90;;;;;;6183167;23;20764;-69
2021/03/06 06:18:56;;;;;;;0.00;0.00;;;-2.60;99.90;;;;;;6182807;23;20377;-69
2021/03/06 06:21:39;;;;;;;0.00;0.00;;;-2.60;99.90;;;;;;6183230;23;20388;-68
2021/03/06 06:24:08;;;;;;;0.00;0.00;;;-2.60;99.90;;;;;;6183414;23;20377;-69
2021/03/06 06:26:34;;;;;;;0.00;0.00;;;-2.50;99.90;;;;;;6183070;23;20598;-69
2021/03/06 06:29:01;;;;;;;0.00;0.00;;;-2.50;99.90;;;;;;6182835;23;20443;-69
2021/03/06 06:31:27;;;;;;;0.00;0.00;;;-2.40;99.90;;;;;;6182948;23;20443;-69
2021/03/06 06:33:53;;;;;;;0.00;0.00;;;-2.30;99.90;;;;;;6183294;23;20485;-69
2021/03/06 06:36:33;;;;;;;0.00;0.00;;;-2.30;99.90;;;;;;6183289;23;20411;-70
2021/03/06 06:38:59;;;;;;;0.00;0.00;;;-2.30;99.90;;;;;;6182372;23;20369;-69
2021/03/06 06:41:49;;;;;;;0.00;0.00;;;-2.30;99.90;;;;;;6183209;23;20450;-69
2021/03/06 06:44:15;;;;;;;0.00;0.00;;;-2.30;99.90;;;;;;6182920;23;20852;-70
2021/03/06 06:46:42;;;;;;;0.00;0.00;;;-2.30;99.90;;;;;;6183151;23;20374;-70
2021/03/06 06:49:08;;;;;;;0.00;0.00;;;-2.20;99.90;;;;;;6182042;23;20393;-70
2021/03/06 06:51:34;;;;;;;0.00;0.00;;;-2.20;99.90;;;;;;6183354;23;20384;-68
2021/03/06 06:54:12;;;;;;;0.00;0.00;;;-2.10;99.90;;;;;;6182837;23;20381;-70
2021/03/06 06:56:40;;;;;;;0.00;0.00;;;-2.00;99.90;;;;;;6183304;23;20860;-69
2021/03/06 06:59:08;;;;;;;0.00;0.00;;;-1.90;99.90;;;;;;6183773;23;20369;-71
2021/03/06 07:01:36;;;;;;;0.00;0.00;;;-1.90;99.90;;;;;;6185284;23;20378;-71
2021/03/06 07:04:04;;;;;;;0.00;0.00;;;-1.70;99.90;;;;;;6184284;23;20411;-70
2021/03/06 07:06:31;;;;;;;0.00;0.00;;;-1.60;99.90;;;;;;6183017;23;20389;-69
2021/03/06 07:09:08;;;;;;;0.00;0.00;;;-1.50;99.90;;;;;;6183003;23;20872;-69
2021/03/06 07:11:34;;;;;;;0.00;0.00;;;-1.40;99.90;;;;;;6182923;23;20412;-69
2021/03/06 07:14:02;;;;;;;0.00;0.00;;;-1.30;99.90;;;;;;6183585;23;20381;-69
2021/03/06 07:16:56;;;;;;;0.00;0.00;;;-1.30;99.90;;;;;;6182531;23;20373;-70
2021/03/06 07:19:23;;;;;;;0.00;0.00;;;-1.30;99.90;;;;;;6184039;23;20369;-70
2021/03/06 07:21:50;;;;;;;0.00;0.00;;;-1.20;99.90;;;;;;6185133;23;20373;-68
2021/03/06 07:24:17;;;;;;;0.00;0.00;;;-1.30;99.90;;;;;;6184700;23;20373;-68
2021/03/06 07:26:43;;;;;;;0.00;0.00;;;-1.30;99.90;;;;;;6184790;23;20396;-70
2021/03/06 07:29:10;;;;;;;0.00;0.00;;;-1.30;99.90;;;;;;6184085;23;20385;-69
2021/03/06 07:31:38;;;;;;;0.00;0.00;;;-1.20;99.90;;;;;;6184670;23;20435;-69
2021/03/06 07:34:08;;;;;;;0.00;0.00;;;-1.00;99.90;;;;;;6184119;23;20883;-69
2021/03/06 07:36:37;;;;;;;0.00;0.00;;;-0.80;99.90;;;;;;6184677;23;20872;-69
2021/03/06 07:39:05;;;;;;;0.00;0.00;;;-0.60;99.90;;;;;;6184212;23;20381;-70
2021/03/06 07:41:37;;;;;;;0.00;0.00;;;-0.30;99.90;;;;;;6184619;23;20389;-69
2021/03/06 07:44:05;;;;;;;0.00;0.00;;;-0.10;99.90;;;;;;6185074;23;20381;-70
2021/03/06 07:46:33;;;;;;;0.00;0.00;;;0.10;99.90;;;;;;6184972;23;20373;-71
2021/03/06 07:49:02;;;;;;;0.00;0.00;;;0.20;99.90;;;;;;6184711;23;20396;-70
2021/03/06 07:51:31;;;;;;;0.00;0.00;;;0.40;99.90;;;;;;6184626;23;20374;-70
2021/03/06 07:53:57;;;;;;;0.00;0.00;;;0.50;99.90;;;;;;6184441;23;20840;-67
2021/03/06 07:56:23;;;;;;;0.00;0.00;;;0.70;99.90;;;;;;6184477;23;20433;-68
2021/03/06 07:58:50;;;;;;;0.00;0.00;;;0.80;99.90;;;;;;6184831;23;20845;-68
2021/03/06 08:01:25;;;;;;;0.00;0.00;;;1.00;99.90;;;;;;6184218;23;20642;-68
2021/03/06 08:03:52;;;;;;;0.00;0.00;;;1.30;99.90;;;;;;6184367;23;20400;-70
2021/03/06 08:06:23;;;;;;;0.00;0.00;;;1.50;99.90;;;;;;6184468;23;20373;-68
2021/03/06 08:09:06;;;;;;;0.00;0.00;;;1.60;99.90;;;;;;6184306;23;20396;-69
2021/03/06 08:11:43;;;;;;;0.00;0.00;;;1.80;99.90;;;;;;6184676;23;20377;-69
2021/03/06 08:14:29;;;;;;;0.00;0.00;;;1.90;99.90;;;;;;6181663;23;20409;-70
2021/03/06 08:16:56;;;;;;;0.00;0.00;;;1.90;99.90;;;;;;6183941;23;20384;-73
2021/03/06 08:19:30;;;;;;;0.00;0.00;;;2.00;99.90;;;;;;6183373;23;20369;-71
2021/03/06 08:22:14;;;;;;;0.00;0.00;;;2.20;99.90;;;;;;6184336;23;20388;-69
2021/03/06 08:24:40;;;;;;;0.00;0.00;;;2.20;99.90;;;;;;6184006;23;20404;-70
2021/03/06 08:27:27;;;;;;;0.00;0.00;;;2.00;99.90;;;;;;6184296;23;20377;-69
2021/03/06 08:29:58;;;;;;;0.00;0.00;;;2.20;99.90;;;;;;6182845;23;20389;-69
2021/03/06 08:32:30;;;;;;;0.00;0.00;;;2.10;99.90;;;;;;6184574;23;20384;-69
2021/03/06 08:34:58;;;;;;;0.00;0.00;;;2.10;99.90;;;;;;6183743;23;20380;-69
2021/03/06 08:37:34;;;;;;;0.00;0.00;;;2.30;99.90;;;;;;6184172;23;20381;-70
2021/03/06 08:40:07;;;;;;;0.00;0.00;;;2.60;99.90;;;;;;6183559;23;20373;-69
2021/03/06 08:42:36;;;;;;;0.00;0.00;;;2.70;99.90;;;;;;6184207;23;20388;-69
2021/03/06 08:45:05;;;;;;;0.00;0.00;;;2.70;99.90;;;;;;6184307;23;20693;-69
2021/03/06 08:47:34;;;;;;;0.00;0.00;;;2.50;99.90;;;;;;6183794;23;20373;-69
2021/03/06 08:50:04;;;;;;;0.00;0.00;;;2.70;99.90;;;;;;6183271;23;20401;-71
2021/03/06 08:52:31;;;;;;;0.00;0.00;;;2.90;99.90;;;;;;6184120;23;20478;-69
2021/03/06 08:54:57;;;;;;;0.00;0.00;;;3.10;99.90;;;;;;6183767;23;20377;-70
2021/03/06 08:57:26;;;;;;;0.00;0.00;;;3.30;99.90;;;;;;6184439;23;20373;-69
2021/03/06 08:59:53;;;;;;;0.00;0.00;;;3.40;99.90;;;;;;6182814;23;20376;-70
2021/03/06 09:02:21;;;;;;;0.00;0.00;;;3.50;99.90;;;;;;6183865;23;20378;-70
2021/03/06 09:04:47;;;;;;;0.00;0.00;;;3.60;99.90;;;;;;6183728;23;20716;-72
2021/03/06 09:07:27;;;;;;;0.00;0.00;;;3.70;99.90;;;;;;6183997;23;20432;-68
2021/03/06 09:09:53;;;;;;;0.00;0.00;;;3.90;99.90;;;;;;6182435;23;20899;-69
2021/03/06 09:12:19;;;;;;;0.00;0.00;;;4.00;99.90;;;;;;6184094;23;20381;-69
2021/03/06 09:14:46;;;;;;;0.00;0.00;;;3.70;99.90;;;;;;6184104;23;20381;-68
2021/03/06 09:17:13;;;;;;;0.00;0.00;;;3.70;99.90;;;;;;6183200;23;20875;-68
2021/03/06 09:19:39;;;;;;;0.00;0.00;;;3.70;99.90;;;;;;6183721;23;20374;-67
2021/03/06 09:22:07;;;;;;;0.00;0.00;;;3.40;99.90;;;;;;6183939;23;20381;-68
2021/03/06 09:24:50;;;;;;;0.00;0.00;;;3.60;99.90;;;;;;6181971;23;20377;-68
2021/03/06 09:27:17;;;;;;;0.00;0.00;;;3.80;99.90;;;;;;6178907;23;20772;-67
2021/03/06 09:29:45;;;;;;;0.00;0.00;;;4.10;99.90;;;;;;6182807;23;20389;-68
2021/03/06 09:32:11;;;;;;;0.00;0.00;;;4.20;99.90;;;;;;6183260;23;20377;-68
2021/03/06 09:34:38;;;;;;;0.00;0.00;;;4.30;99.90;;;;;;6183228;23;20373;-67
2021/03/06 09:37:14;;;;;;;0.00;0.00;;;4.40;99.90;;;;;;6183113;23;20469;-68
2021/03/06 09:39:40;;;;;;;0.00;0.00;;;4.50;99.90;;;;;;6182167;23;20380;-68
2021/03/06 09:42:08;;;;;;;0.00;0.00;;;4.60;99.90;;;;;;6183239;23;20741;-67
2021/03/06 09:44:34;;;;;;;0.00;0.00;;;4.70;99.90;;;;;;6183282;23;20384;-69
2021/03/06 09:47:01;;;;;;;0.00;0.00;;;4.70;99.90;;;;;;6183068;23;20373;-69
2021/03/06 09:49:34;;;;;;;0.00;0.00;;;4.70;99.90;;;;;;6182602;23;20385;-68
2021/03/06 09:52:00;;;;;;;0.00;0.00;;;4.80;99.90;;;;;;6183344;23;20393;-70
2021/03/06 09:54:27;;;;;;;0.00;0.00;;;4.90;99.90;;;;;;6183479;23;20377;-72
2021/03/06 09:56:55;;;;;;;0.00;0.00;;;4.90;99.90;;;;;;6181803;23;20860;-71
2021/03/06 09:59:24;;;;;;;0.00;0.00;;;4.90;99.90;;;;;;6182880;23;20416;-71
2021/03/06 10:01:51;;;;;;;0.00;0.00;;;4.90;99.90;;;;;;6183763;23;20718;-70
2021/03/06 10:04:20;;;;;;;0.00;0.00;;;5.10;99.90;;;;;;6182868;23;20388;-70
2021/03/06 10:06:53;;;;;;;0.00;0.00;;;5.20;99.90;;;;;;6181167;23;20389;-70
2021/03/06 10:09:21;;;;;;;0.00;0.00;;;5.00;99.90;;;;;;6179719;23;20389;-68
2021/03/06 10:11:49;;;;;;;0.00;0.00;;;5.00;99.90;;;;;;6183316;23;20754;-70
2021/03/06 10:14:18;;;;;;;0.00;0.00;;;5.00;99.90;;;;;;6183272;23;20382;-69
2021/03/06 10:16:47;;;;;;;0.00;0.00;;;5.00;99.90;;;;;;6177793;23;20386;-69
2021/03/06 10:19:14;;;;;;;0.00;0.00;;;5.00;99.90;;;;;;6180847;23;20397;-74
2021/03/06 10:21:41;;;;;;;0.00;0.00;;;5.30;99.90;;;;;;6182598;23;20377;-72
2021/03/06 10:24:11;;;;;;;0.00;0.00;;;5.10;99.90;;;;;;6182824;23;20910;-73
2021/03/06 10:26:37;;;;;;;0.00;0.00;;;5.10;99.90;;;;;;6182964;23;20392;-73
2021/03/06 10:29:20;;;;;;;0.00;0.00;;;5.10;99.90;;;;;;6183692;23;20385;-73
2021/03/06 10:31:55;;;;;;;0.00;0.00;;;5.30;99.90;;;;;;6184234;23;20381;-73
2021/03/06 10:34:24;;;;;;;0.00;0.00;;;5.40;99.90;;;;;;6183627;23;20385;-73
2021/03/06 10:37:15;;;;;;;0.00;0.00;;;5.60;99.90;;;;;;6182560;23;20386;-72
2021/03/06 10:39:56;;;;;;;0.00;0.00;;;5.80;99.90;;;;;;6182142;23;20382;-72
2021/03/06 10:42:23;;;;;;;0.00;0.00;;;5.80;99.90;;;;;;6183296;23;20373;-72
2021/03/06 10:44:49;;;;;;;0.00;0.00;;;5.80;99.90;;;;;;6182355;23;20377;-67
2021/03/06 10:47:25;;;;;;;0.00;0.00;;;5.80;99.90;;;;;;6183301;23;20384;-74
2021/03/06 10:56:20;;;;;;;0.00;0.00;;;6.90;99.90;;;;;;6090756;23;20378;-71
2021/03/06 10:58:50;;;;;;;0.00;0.00;;;6.00;99.90;;;;;;6181405;23;20436;-73
2021/03/06 11:01:32;;;;;;;0.00;0.00;;;6.10;99.90;;;;;;6182741;23;20382;-68
2021/03/06 11:04:00;;;;;;;0.00;0.00;;;5.50;99.90;;;;;;6183030;23;20402;-67
2021/03/06 11:06:26;;;;;;;0.00;0.00;;;5.70;99.90;;;;;;6182430;23;20384;-72
2021/03/06 11:09:00;;;;;;;0.00;0.00;;;5.80;99.90;;;;;;6182652;23;20874;-71
2021/03/06 11:11:26;;;;;;;0.00;0.00;;;5.90;99.90;;;;;;6183137;23;20717;-72
2021/03/06 11:13:53;;;;;;;0.00;0.00;;;6.10;99.90;;;;;;6183011;23;20377;-70
2021/03/06 11:16:37;;;;;;;0.00;0.00;;;5.90;99.90;;;;;;6182806;23;20380;-72
2021/03/06 11:19:05;;;;;;;0.00;0.00;;;5.70;99.90;;;;;;6182889;23;20373;-71
2021/03/06 11:21:31;;;;;;;0.00;0.00;;;5.90;99.90;;;;;;6182653;23;20377;-72
2021/03/06 11:23:57;;;;;;;0.00;0.00;;;6.10;99.90;;;;;;6182984;23;20373;-68
2021/03/06 11:26:23;;;;;;;0.00;0.00;;;6.20;99.90;;;;;;6182575;23;20385;-68
2021/03/06 11:28:49;;;;;;;0.00;0.00;;;6.30;99.90;;;;;;6182865;23;20390;-66
2021/03/06 11:31:15;;;;;;;0.00;0.00;;;6.10;99.90;;;;;;6182411;23;20408;-67
2021/03/06 11:33:42;;;;;;;0.00;0.00;;;6.10;99.90;;;;;;6183036;23;20678;-69
2021/03/06 11:36:09;;;;;;;0.00;0.00;;;6.00;99.90;;;;;;6182958;23;20705;-69
2021/03/06 11:38:35;;;;;;;0.00;0.00;;;6.00;99.90;;;;;;6182411;23;20377;-70
2021/03/06 11:41:01;;;;;;;0.00;0.00;;;6.00;99.90;;;;;;6182505;23;20388;-70
2021/03/06 11:43:27;;;;;;;0.00;0.00;;;6.00;99.90;;;;;;6182571;23;20388;-70
2021/03/06 11:45:54;;;;;;;0.00;0.00;;;6.10;99.90;;;;;;6182182;23;20390;-69
2021/03/06 11:48:20;;;;;;;0.00;0.00;;;6.10;99.90;;;;;;6181136;23;20440;-69
2021/03/06 11:50:48;;;;;;;0.00;0.00;;;6.00;99.90;;;;;;6181763;23;20697;-70
2021/03/06 11:53:15;;;;;;;0.00;0.00;;;6.10;99.90;;;;;;6182262;23;20931;-68
2021/03/06 11:55:41;;;;;;;0.00;0.00;;;6.20;99.90;;;;;;6181906;23;20843;-69
2021/03/06 11:58:08;;;;;;;0.00;0.00;;;5.90;99.90;;;;;;6182785;23;20384;-70
2021/03/06 12:00:36;;;;;;;0.00;0.00;;;5.90;99.90;;;;;;6182314;23;20381;-69
2021/03/06 12:03:03;;;;;;;0.00;0.00;;;6.10;99.90;;;;;;6182798;23;20385;-69
2021/03/06 12:05:29;;;;;;;0.00;0.00;;;6.20;99.90;;;;;;6183470;23;20380;-71
2021/03/06 12:07:55;;;;;;;0.00;0.00;;;6.20;99.90;;;;;;6186547;23;20399;-72
2021/03/06 12:10:25;;;;;;;0.00;0.00;;;6.20;99.90;;;;;;6185636;23;20452;-72
2021/03/06 12:12:51;;;;;;;0.00;0.00;;;6.10;99.90;;;;;;6183987;23;20381;-69
2021/03/06 12:15:19;;;;;;;0.00;0.00;;;6.00;99.90;;;;;;6184340;23;20496;-69
2021/03/06 12:17:46;;;;;;;0.00;0.00;;;6.00;99.90;;;;;;6183935;23;20456;-69
2021/03/06 12:20:15;;;;;;;0.00;0.00;;;6.00;99.90;;;;;;6184255;23;20373;-68
2021/03/06 12:22:41;;;;;;;0.00;0.00;;;5.80;99.90;;;;;;6184291;23;20381;-68
2021/03/06 12:25:09;;;;;;;0.00;0.00;;;5.80;99.90;;;;;;6183722;23;20399;-68
2021/03/06 12:27:37;;;;;;;0.00;0.00;;;5.90;99.90;;;;;;6184162;23;20373;-69
2021/03/06 12:30:11;;;;;;;0.00;0.00;;;6.10;99.90;;;;;;6183050;23;20396;-70
2021/03/06 12:32:38;;;;;;;0.00;0.00;;;5.90;99.90;;;;;;6184102;23;20432;-70
2021/03/06 12:35:07;;;;;;;0.00;0.00;;;5.70;99.90;;;;;;6183873;23;20403;-69
2021/03/06 12:37:33;;;;;;;0.00;0.00;;;5.70;99.90;;;;;;6183886;23;20388;-70
2021/03/06 12:40:00;;;;;;;0.00;0.00;;;5.80;99.90;;;;;;6183686;23;20382;-69
2021/03/06 12:42:26;;;;;;;0.00;0.00;;;6.00;99.90;;;;;;6183405;23;20432;-70
2021/03/06 12:44:53;;;;;;;0.00;0.00;;;6.20;99.90;;;;;;6184127;23;20381;-70
2021/03/06 12:47:19;;;;;;;0.00;0.00;;;6.30;99.90;;;;;;6183440;23;20385;-69
2021/03/06 12:49:45;;;;;;;0.00;0.00;;;6.30;99.90;;;;;;6183268;23;20385;-69
2021/03/06 12:52:11;;;;;;;0.00;0.00;;;6.40;99.90;;;;;;6183600;23;20707;-69
2021/03/06 12:54:37;;;;;;;0.00;0.00;;;6.20;99.90;;;;;;6183517;23;20385;-69
2021/03/06 12:57:04;;;;;;;0.00;0.00;;;5.60;99.90;;;;;;6183717;23;20384;-69
2021/03/06 12:59:30;;;;;;;0.00;0.00;;;5.80;99.90;;;;;;6182016;23;20743;-69
2021/03/06 13:01:57;;;;;;;0.00;0.00;;;6.10;99.90;;;;;;6183578;23;20871;-69
2021/03/06 13:04:24;;;;;;;0.00;0.00;;;6.20;99.90;;;;;;6183526;23;20377;-69